Latest Weather Observations for Warwick

IDQ60901

Issued at 9:35 pm EST Saturday 25 October 2014 (issued every 10 minutes, with the page automatically refreshed every 10 minutes)

About weather observations | Map of Brisbane area stations | Latest observations for Brisbane area | Other Formats
Station Details ID: 041525 Name: WARWICK Lat: -28.21 Lon: 152.10 Height: 475.4 m
Data from the previous 72 hours. | See also: Recent months at Warwick
Date/Time
EST
Tmp

°C
App
Tmp
°C
Dew
Point
°C
Rel
Hum
%
Delta-T

°C
Wind Press
QNH
hPa
Press
MSL
hPa
Rain
since
9 am
mm
Dir
 
Spd
km/h
Gust
km/h
Spd
kts
Gust
kts
25/09:30pm 22.7 23.8 13.4 55 5.5 NW 0 0 0 0 1017.7 1016.2 0.0
25/09:00pm 23.9 24.5 13.0 50 6.4 ESE 2 7 1 4 1017.8 1016.3 0.0
25/08:30pm 24.1 22.5 10.2 41 7.8 NNE 9 13 5 7 1017.4 1015.9 0.0
25/08:00pm 23.3 20.3 7.9 37 8.3 SE 13 17 7 9 1016.9 1015.4 0.0
25/07:30pm 26.1 24.2 9.1 34 9.5 WNW 9 13 5 7 1016.1 1014.6 0.0
25/07:00pm 27.0 25.1 9.2 32 10.0 W 9 13 5 7 1015.9 1014.4 0.0
25/06:30pm 27.2 25.9 11.4 37 9.2 W 9 13 5 7 1015.6 1014.1 0.0
25/06:00pm 28.5 25.9 7.9 27 11.4 WSW 11 15 6 8 1015.3 1013.8 0.0
25/05:30pm 30.7 28.0 7.2 23 13.0 WSW 11 17 6 9 1014.9 1013.4 0.0
25/05:00pm 32.1 29.7 8.6 23 13.4 WSW 11 17 6 9 1014.6 1013.1 0.0
25/04:30pm 33.1 30.3 8.7 22 14.0 WSW 13 20 7 11 1014.6 1013.1 0.0
25/04:00pm 33.2 29.5 6.5 19 14.8 WSW 15 28 8 15 1014.5 1013.0 0.0
25/03:30pm 33.2 29.6 9.7 23 13.7 SSW 19 28 10 15 1014.6 1013.1 0.0
25/03:00pm 33.3 28.7 5.7 18 15.1 WSW 19 26 10 14 1014.8 1013.3 0.0
25/02:30pm 31.3 28.8 10.9 28 12.0 NNW 15 24 8 13 1015.2 1013.7 0.0
25/02:00pm 31.0 28.0 11.9 31 11.4 NNW 19 24 10 13 1015.8 1014.3 0.0
25/01:30pm 31.1 29.5 11.6 30 11.6 WNW 11 26 6 14 1016.4 1014.9 0.0
25/01:00pm 30.3 28.1 12.2 33 10.8 WNW 15 24 8 13 1016.8 1015.3 0.0
25/12:30pm 29.4 26.4 11.8 33 10.4 WNW 19 28 10 15 1017.5 1016.0 0.0
25/12:00pm 29.6 27.6 12.6 35 10.2 W 15 24 8 13 1018.2 1016.7 0.0
25/11:30am 27.5 25.6 13.1 41 8.6 W 15 28 8 15 1018.8 1017.4 0.0
25/11:00am 26.3 25.7 13.4 45 7.7 WNW 9 17 5 9 1019.5 1018.0 0.0
25/10:30am 25.2 24.3 13.7 49 6.9 NW 11 17 6 9 1020.3 1018.8 0.0
25/10:00am 23.3 20.9 13.7 54 5.7 NNW 19 24 10 13 1020.8 1019.4 0.0
25/09:30am 22.3 20.2 13.7 58 5.1 WNW 17 28 9 15 1021.0 1019.6 0.0
25/09:00am 21.2 20.0 14.1 64 4.2 NW 13 22 7 12 1021.2 1019.8 4.0
25/08:30am 19.8 18.7 14.4 71 3.2 WNW 13 20 7 11 1021.5 1020.1 4.0
25/08:00am 19.0 17.6 13.5 70 3.2 NW 13 20 7 11 1021.4 1020.0 4.0
25/07:30am 18.2 17.9 14.3 78 2.3 W 9 13 5 7 1021.5 1020.1 4.0
25/07:00am 16.9 16.9 14.1 83 1.6 W 7 13 4 7 1021.2 1019.8 4.0
25/06:30am 14.9 15.6 13.3 90 0.9 SW 2 9 1 5 1021.1 1019.7 4.0
25/06:00am 12.4 13.0 11.8 96 0.3 CALM 0 0 0 0 1020.7 1019.3 4.0
25/05:30am 12.9 13.7 12.5 97 0.2 CALM 0 0 0 0 1020.3 1018.8 4.0
25/05:00am 12.6 13.4 12.4 99 0.1 CALM 0 0 0 0 1020.0 1018.5 4.0
25/04:30am 12.2 12.8 11.8 97 0.2 CALM 0 0 0 0 1019.7 1018.2 4.0
25/04:00am 12.7 13.5 12.5 99 0.1 CALM 0 0 0 0 1019.5 1018.0 4.0
25/03:30am 13.1 13.9 12.6 97 0.3 CALM 0 0 0 0 1018.9 1017.5 4.0
25/03:00am 12.9 13.7 12.4 97 0.3 CALM 0 9 0 5 1018.8 1017.4 4.0
25/02:30am 15.1 15.5 13.7 91 0.8 W 4 7 2 4 1019.0 1017.6 4.0
25/02:00am 14.4 14.7 13.3 93 0.6 WSW 4 7 2 4 1019.1 1017.7 4.0
25/01:30am 14.8 16.0 13.8 94 0.6 CALM 0 0 0 0 1019.1 1017.7 4.0
25/01:00am 15.0 15.1 13.8 92 0.7 W 6 9 3 5 1019.7 1018.2 4.0
25/12:30am 14.6 14.9 13.5 93 0.6 W 4 7 2 4 1019.9 1018.4 4.0
25/12:00am 15.1 16.3 13.9 92 0.7 CALM 0 0 0 0 1020.3 1018.8 4.0
 
Date/Time
EST
Tmp

°C
App
Tmp
°C
Dew
Point
°C
Rel
Hum
%
Delta-T

°C
Wind Press
QNH
hPa
Press
MSL
hPa
Rain
since
9 am
mm
Dir
 
Spd
km/h
Gust
km/h
Spd
kts
Gust
kts
24/11:30pm 15.2 16.5 14.2 94 0.6 CALM 0 4 0 2 1020.7 1019.3 4.0
24/11:00pm 16.1 16.2 14.4 90 1.0 WSW 7 11 4 6 1021.1 1019.7 4.0
24/10:30pm 16.0 17.4 14.3 90 1.0 CALM 0 0 0 0 1020.5 1019.0 4.0
24/10:00pm 16.5 16.2 14.3 87 1.3 NE 9 11 5 6 1021.2 1019.8 4.0
24/09:30pm 17.2 17.5 14.5 84 1.6 E 6 9 3 5 1021.5 1020.1 4.0
24/09:00pm 17.3 18.3 15.3 88 1.2 ENE 4 9 2 5 1021.3 1019.9 4.0
24/08:30pm 17.8 18.3 15.1 84 1.6 ENE 6 9 3 5 1021.3 1019.9 4.0
24/08:00pm 18.3 20.3 16.0 86 1.4 CALM 0 6 0 3 1021.1 1019.7 4.0
24/07:30pm 18.4 20.6 16.4 88 1.2 CALM 0 0 0 0 1020.7 1019.3 4.0
24/07:00pm 19.4 20.2 16.3 82 1.9 ESE 7 13 4 7 1020.2 1018.7 4.0
24/06:30pm 20.2 17.8 15.4 74 2.9 NNE 22 30 12 16 1019.3 1017.9 4.0
24/06:00pm 18.8 16.8 15.6 82 1.9 ENE 20 26 11 14 1019.9 1018.4 3.4
24/05:47pm 21.5 19.5 16.5 73 3.1 SE 22 35 12 19 1019.8 1018.3 0.0
24/05:30pm 26.7 23.7 12.5 41 8.4 NE 20 26 11 14 1018.7 1017.2 0.0
24/05:00pm 27.3 24.8 12.4 39 8.8 NE 17 22 9 12 1018.1 1016.6 0.0
24/04:30pm 27.9 24.8 13.3 40 8.8 NE 22 28 12 15 1017.9 1016.4 0.0
24/04:00pm 27.7 26.2 13.0 40 8.8 ENE 13 24 7 13 1017.9 1016.4 0.0
24/03:30pm 29.5 29.5 11.3 32 10.7 NE 2 9 1 5 1017.9 1016.4 0.0
24/03:00pm 29.5 28.8 11.3 32 10.7 S 6 11 3 6 1018.0 1016.5 0.0
24/02:30pm 28.4 26.8 10.3 32 10.4 ENE 9 13 5 7 1018.5 1017.0 0.0
24/02:00pm 29.1 28.0 10.6 31 10.7 E 7 11 4 6 1018.8 1017.4 0.0
24/01:30pm 28.7 27.1 11.7 35 10.0 SW 11 22 6 12 1019.2 1017.8 0.0
24/01:00pm 28.4 27.3 12.0 36 9.7 WSW 9 15 5 8 1019.8 1018.3 0.0
24/12:30pm 28.1 28.0 12.2 37 9.4 N 4 9 2 5 1020.2 1018.7 0.0
24/12:00pm 26.9 26.4 11.9 39 8.8 S 6 13 3 7 1020.7 1019.3 0.0
24/11:30am 26.4 25.5 12.7 42 8.1 SW 9 15 5 8 1021.2 1019.8 0.0
24/11:00am 26.1 26.7 14.2 48 7.2 NNW 4 9 2 5 1021.7 1020.2 0.0
24/10:30am 24.1 23.1 13.3 51 6.4 W 11 19 6 10 1022.2 1020.7 0.0
24/10:00am 23.5 23.8 14.9 58 5.2 W 7 13 4 7 1022.5 1021.1 0.0
24/09:30am 21.7 23.1 15.4 67 3.8 NE 2 7 1 4 1022.9 1021.5 0.0
24/09:00am 19.5 20.5 14.2 71 3.1 NW 2 7 1 4 1023.1 1021.7 6.0
24/08:30am 18.1 18.3 14.2 78 2.3 S 6 9 3 5 1023.3 1021.9 6.0
24/08:00am 16.7 16.9 14.3 86 1.4 E 6 9 3 5 1023.2 1021.8 6.0
24/07:30am 14.7 15.7 13.3 91 0.8 CALM 0 0 0 0 1023.1 1021.7 6.0
24/07:00am 12.9 13.7 12.5 97 0.2 CALM 0 0 0 0 1022.9 1021.5 6.0
24/06:30am 12.3 12.9 11.9 97 0.2 CALM 0 0 0 0 1022.7 1021.3 6.0
24/06:00am 11.2 11.6 11.2 100 0.0 CALM 0 0 0 0 1022.5 1021.1 6.0
24/05:30am 10.4 10.6 10.4 100 0.0 CALM 0 0 0 0 1022.0 1020.5 6.0
24/05:00am 11.6 12.1 11.6 100 0.0 CALM 0 0 0 0 1021.5 1020.1 6.0
24/04:30am 12.5 13.2 12.1 97 0.2 CALM 0 0 0 0 1021.3 1019.9 6.0
24/04:00am 12.9 13.7 12.5 97 0.2 CALM 0 0 0 0 1021.1 1019.7 6.0
24/03:30am 12.5 11.8 12.1 97 0.2 WSW 7 9 4 5 1020.7 1019.3 5.8
24/03:00am 13.0 13.0 12.5 97 0.3 WSW 4 9 2 5 1020.5 1019.0 5.8
24/02:30am 13.2 13.9 12.3 94 0.5 CALM 0 0 0 0 1020.5 1019.0 5.8
24/02:00am 13.9 14.4 12.8 93 0.6 N 2 7 1 4 1020.4 1018.9 5.8
24/01:30am 13.1 13.9 12.4 95 0.4 CALM 0 0 0 0 1020.3 1018.8 5.8
24/01:00am 14.2 14.8 13.1 93 0.6 E 2 6 1 3 1020.6 1019.1 5.8
24/12:30am 14.3 14.0 13.2 93 0.6 NE 7 9 4 5 1020.7 1019.3 5.8
24/12:00am 14.6 15.8 13.9 96 0.4 CALM 0 0 0 0 1021.0 1019.6 5.8
 
Date/Time
EST
Tmp

°C
App
Tmp
°C
Dew
Point
°C
Rel
Hum
%
Delta-T

°C
Wind Press
QNH
hPa
Press
MSL
hPa
Rain
since
9 am
mm
Dir
 
Spd
km/h
Gust
km/h
Spd
kts
Gust
kts
23/11:30pm 14.8 16.0 13.9 94 0.5 CALM 0 0 0 0 1021.1 1019.7 5.8
23/11:00pm 14.9 16.2 14.2 96 0.4 CALM 0 0 0 0 1021.3 1019.9 5.8
23/10:30pm 15.4 16.8 14.5 94 0.5 CALM 0 0 0 0 1021.3 1019.9 5.8
23/10:00pm 16.3 16.6 14.4 88 1.1 ENE 6 9 3 5 1021.2 1019.8 5.8
23/09:30pm 16.9 16.9 14.3 85 1.5 S 7 19 4 10 1021.5 1020.1 5.8
23/09:00pm 16.8 14.5 14.2 85 1.5 N 19 22 10 12 1021.7 1020.2 5.4
23/08:30pm 17.3 16.0 14.9 86 1.4 SSW 15 20 8 11 1022.9 1021.5 3.0
23/08:00pm 18.1 17.0 14.2 78 2.3 SE 13 22 7 12 1022.2 1020.7 3.0
23/07:30pm 18.0 18.2 14.8 81 1.9 SE 7 13 4 7 1021.8 1020.3 3.0
23/07:00pm 18.0 17.5 14.8 81 1.9 E 11 17 6 9 1021.3 1019.9 3.0
23/06:30pm 18.3 17.8 14.9 80 2.0 ENE 11 19 6 10 1020.3 1018.8 3.0
23/06:00pm 18.5 16.0 14.2 76 2.5 NNE 20 24 11 13 1019.8 1018.3 3.0
23/05:30pm 17.3 15.2 15.3 88 1.2 NE 20 26 11 14 1020.1 1018.6 2.6
23/05:00pm 18.7 16.9 15.5 81 1.9 E 19 32 10 17 1018.6 1017.1 0.2
23/04:41pm 21.2 17.3 14.3 64 4.1 SSE 28 48 15 26 1018.1 1016.6 0.0
23/04:30pm 23.8 20.4 12.5 49 6.6 SSE 22 41 12 22 1017.9 1016.4 0.0
23/04:00pm 27.0 23.0 6.7 27 10.9 NNW 17 24 9 13 1016.8 1015.3 0.0
23/03:30pm 28.0 24.1 7.0 26 11.4 NW 17 24 9 13 1016.6 1015.1 0.0
23/03:00pm 27.4 24.7 9.0 31 10.3 WNW 13 20 7 11 1016.7 1015.2 0.0
23/02:30pm 27.4 25.4 10.0 33 9.9 W 11 19 6 10 1016.8 1015.3 0.0
23/02:00pm 28.0 26.2 7.9 28 11.1 WNW 7 15 4 8 1017.1 1015.7 0.0
23/01:30pm 28.5 26.4 8.4 28 11.2 ENE 9 15 5 8 1017.7 1016.2 0.0
23/01:00pm 27.5 24.9 9.4 32 10.2 NNW 13 22 7 12 1018.3 1016.8 0.0
23/12:30pm 27.6 25.3 9.1 31 10.4 WSW 11 20 6 11 1018.8 1017.4 0.0
23/12:00pm 26.2 24.0 9.2 34 9.5 NW 11 22 6 12 1019.8 1018.3 0.0
23/11:30am 25.6 23.5 9.8 37 8.9 WSW 11 22 6 12 1020.3 1018.8 0.0
23/11:00am 23.5 20.5 9.1 40 7.9 W 15 24 8 13 1021.0 1019.6 0.0
23/10:30am 23.1 20.1 9.3 41 7.6 W 15 24 8 13 1021.7 1020.2 0.0
23/10:00am 21.9 19.7 9.5 45 6.8 W 11 17 6 9 1022.3 1020.8 0.0
23/09:30am 20.5 19.1 9.5 49 6.0 NNW 7 15 4 8 1022.6 1021.2 0.0
23/09:00am 20.1 18.7 9.6 51 5.7 N 7 17 4 9 1022.8 1021.4 0.0
23/08:30am 18.3 16.5 9.6 57 4.7 WNW 9 17 5 9 1023.1 1021.7 0.0
23/08:00am 16.7 16.5 10.4 66 3.4 SSE 2 9 1 5 1023.3 1021.9 0.0
23/07:30am 15.1 14.8 10.2 72 2.6 S 2 7 1 4 1023.3 1021.9 0.0
23/07:00am 13.9 14.0 10.1 78 2.0 CALM 0 0 0 0 1023.1 1021.7 0.0
23/06:30am 11.7 11.2 9.4 86 1.2 SW 2 7 1 4 1023.0 1021.6 0.0
23/06:00am 9.9 9.5 8.3 90 0.8 CALM 0 0 0 0 1022.5 1021.1 0.0
23/05:30am 8.3 7.7 7.3 93 0.5 CALM 0 0 0 0 1022.3 1020.8 0.0
23/05:00am 8.4 7.5 7.8 96 0.3 SW 2 7 1 4 1021.9 1020.4 0.0
23/04:30am 8.3 7.6 7.0 91 0.6 CALM 0 0 0 0 1021.8 1020.3 0.0
23/04:00am 10.0 9.8 9.2 95 0.4 CALM 0 0 0 0 1021.5 1020.1 0.0
23/03:30am 9.9 8.4 8.5 91 0.7 N 6 7 3 4 1021.5 1020.1 0.0
23/03:00am 10.7 9.2 8.5 86 1.1 NE 6 7 3 4 1021.7 1020.2 0.0
23/02:30am 10.9 9.5 8.7 86 1.1 NE 6 9 3 5 1022.0 1020.5 0.0
23/02:00am 11.4 11.0 8.4 82 1.5 CALM 0 0 0 0 1022.0 1020.5 0.0
23/01:30am 10.9 10.7 9.1 89 0.9 CALM 0 0 0 0 1022.3 1020.8 0.0
23/01:00am 11.3 11.1 9.1 86 1.1 CALM 0 0 0 0 1022.6 1021.2 0.0
23/12:30am 11.7 11.4 8.7 82 1.5 CALM 0 0 0 0 1022.7 1021.3 0.0
23/12:00am 12.8 12.7 9.3 79 1.8 CALM 0 0 0 0 1023.0 1021.6 0.0
 
Date/Time
EST
Tmp

°C
App
Tmp
°C
Dew
Point
°C
Rel
Hum
%
Delta-T

°C
Wind Press
QNH
hPa
Press
MSL
hPa
Rain
since
9 am
mm
Dir
 
Spd
km/h
Gust
km/h
Spd
kts
Gust
kts
22/11:30pm 13.7 11.4 9.1 74 2.4 NNE 11 17 6 9 1023.1 1021.7 0.0
22/11:00pm 14.0 11.9 9.6 75 2.3 ENE 11 19 6 10 1023.0 1021.6 0.0
22/10:30pm 13.6 12.8 8.3 70 2.7 E 2 7 1 4 1023.1 1021.7 0.0
22/10:00pm 14.7 12.9 9.4 70 2.8 ENE 9 13 5 7 1023.2 1021.8 0.0

Latest Capital City Observations: Canberra | Sydney | Melbourne | Brisbane | Adelaide | Perth | Hobart | Darwin

Other Formats:

Comma delimited format used in spreadsheet applications
http://www.bom.gov.au/fwo/IDQ60901/IDQ60901.94555.axf

JavaScript Object Notation format (JSON) in row-major order
http://www.bom.gov.au/fwo/IDQ60901/IDQ60901.94555.json